»·PEaware :: N96792 KCRQ-KBUR

N96792 :: KCRQ-KBUR

FLIGHT INFORMATION

Flight Status: Arrived
Operator: Privately registered:
United States
More flights under this callsign
Pilot: Thomas B. (35019)
Aircraft: CESSNA 172 SKYHAWK
(C172)
More flights by this aircraft type
Origin: KCRQ McClellan-Palomar
United States
Destination: KBUR Bob Hope-Burbank
United States
More flights between these airports :: More routes between these airports
Route: OCN V23 POPPR SMO125 SMO SMO311 SILEX
File this flight plan on PilotEdge
Remarks:
Altitude:
(Current/Filed)
6,000ft
Speed:
(Current/Filed)
120kts
Departed: 29-Aug-21 06:18 PM
Arrived: 29-Aug-21 07:12 PM
Distance/Time
Traveled:
84nm/0:54
Distance/Time
To Go:
Arrived

Flight Plot

Page will automatically refresh every two minutes.


Map Options




Map Legend


Flown Route
Filed Route
Departure Airport
Arrival Airport
Navaid (VOR, NDB)
Fix

Horizontal Profiles

Position Reports

Time Latitude Longitude Heading Altitude Ground
Speed
29-Aug-21 18:05 33.127883 -117.274978 169 308ft 0kts
29-Aug-21 18:06 33.127883 -117.274978 169 308ft 0kts
29-Aug-21 18:07 33.127883 -117.274978 169 308ft 0kts
29-Aug-21 18:08 33.127883 -117.274978 169 308ft 0kts
29-Aug-21 18:09 33.127883 -117.274978 169 308ft 0kts
29-Aug-21 18:10 33.127883 -117.274978 169 308ft 0kts
29-Aug-21 18:11 33.127883 -117.274978 169 308ft 0kts
29-Aug-21 18:12 33.127883 -117.274978 169 308ft 0kts
29-Aug-21 18:13 33.127883 -117.274978 169 308ft 0kts
29-Aug-21 18:14 33.127883 -117.274978 169 308ft 0kts
29-Aug-21 18:15 33.127903 -117.275054 334 308ft 12kts
29-Aug-21 18:16 33.128674 -117.272771 15 301ft 0kts
29-Aug-21 18:17 33.129019 -117.275623 260 309ft 62kts
29-Aug-21 18:18 33.125170 -117.297086 263 1160ft 77kts
29-Aug-21 18:19 33.122623 -117.326022 264 1979ft 95kts
29-Aug-21 18:20 33.119310 -117.358112 262 2821ft 96kts
29-Aug-21 18:21 33.115670 -117.388654 261 3715ft 89kts
29-Aug-21 18:22 33.112144 -117.416931 261 4577ft 88kts
29-Aug-21 18:23 33.108302 -117.447092 261 5384ft 95kts
29-Aug-21 18:24 33.103963 -117.480848 261 5850ft 121kts
29-Aug-21 18:25 33.111794 -117.516614 339 6009ft 132kts
29-Aug-21 18:26 33.147410 -117.530166 339 6009ft 135kts
29-Aug-21 18:27 33.182502 -117.547203 337 6007ft 136kts
29-Aug-21 18:28 33.217740 -117.564550 336 6005ft 137kts
29-Aug-21 18:29 33.252990 -117.582851 335 6003ft 138kts
29-Aug-21 18:30 33.288070 -117.601455 335 6039ft 137kts
29-Aug-21 18:31 33.323448 -117.619830 336 6039ft 139kts
29-Aug-21 18:32 33.358628 -117.637865 336 6035ft 132kts
29-Aug-21 18:33 33.391805 -117.654918 336 6033ft 130kts
29-Aug-21 18:34 33.425379 -117.672193 336 6033ft 132kts
29-Aug-21 18:35 33.459271 -117.688947 336 6032ft 132kts
29-Aug-21 18:36 33.489801 -117.712121 314 6031ft 131kts
29-Aug-21 18:37 33.514381 -117.744100 302 6030ft 130kts
29-Aug-21 18:38 33.535317 -117.779782 304 6030ft 131kts
29-Aug-21 18:39 33.556770 -117.815010 304 6030ft 131kts
29-Aug-21 18:40 33.578292 -117.850457 304 6030ft 131kts
29-Aug-21 18:41 33.599865 -117.886111 304 6031ft 131kts
29-Aug-21 18:42 33.621240 -117.921538 304 6032ft 130kts
29-Aug-21 18:43 33.642823 -117.957351 304 5967ft 132kts
29-Aug-21 18:44 33.664007 -117.992450 304 6006ft 130kts
29-Aug-21 18:45 33.685167 -118.027478 304 6008ft 129kts
29-Aug-21 18:46 33.706313 -118.062446 303 6009ft 129kts
29-Aug-21 18:47 33.727390 -118.097269 303 6011ft 128kts
29-Aug-21 18:48 33.748424 -118.131716 303 6012ft 128kts
29-Aug-21 18:49 33.769554 -118.165998 303 6013ft 127kts
29-Aug-21 18:50 33.791306 -118.200671 303 6017ft 131kts
29-Aug-21 18:51 33.812771 -118.236388 302 6020ft 132kts
29-Aug-21 18:52 33.834198 -118.272457 302 6023ft 132kts
29-Aug-21 18:54 33.860951 -118.303050 316 6023ft 134kts
29-Aug-21 18:55 33.889055 -118.332506 316 6026ft 133kts
29-Aug-21 18:56 33.916836 -118.362062 316 6028ft 133kts
29-Aug-21 18:57 33.944609 -118.391542 316 6030ft 133kts
29-Aug-21 18:58 33.973151 -118.420348 319 6033ft 134kts
29-Aug-21 18:59 34.002155 -118.448897 319 6037ft 134kts
29-Aug-21 19:00 34.032927 -118.474790 326 6040ft 135kts
29-Aug-21 19:01 34.064348 -118.500104 325 6045ft 136kts
29-Aug-21 19:02 34.095644 -118.525763 325 6051ft 136kts
29-Aug-21 19:03 34.125651 -118.550454 325 6040ft 121kts
29-Aug-21 19:04 34.153046 -118.573084 325 5683ft 117kts
29-Aug-21 19:05 34.179568 -118.578753 57 5171ft 106kts
29-Aug-21 19:06 34.194989 -118.547526 80 4670ft 109kts
29-Aug-21 19:07 34.196178 -118.510675 90 4172ft 110kts
29-Aug-21 19:08 34.196751 -118.473684 97 3668ft 109kts
29-Aug-21 19:09 34.197346 -118.437790 80 3056ft 104kts
29-Aug-21 19:10 34.199197 -118.406920 97 2067ft 90kts
29-Aug-21 19:11 34.198034 -118.377392 94 1073ft 67kts
29-Aug-21 19:12 34.198112 -118.364699 27 721ft 14kts

Navigation Log

Ident Type
Flight plan parsing failed, navigation log unavailable